Time;durP1;ratioP1;P1;durP2;ratioP2;P2;SDS_P1;SDS_P2;PMS_P1;PMS_P2;Temp;Humidity;BMP_temperature;BMP_pressure;BME280_temperature;BME280_humidity;BME280_pressure;Samples;Min_cycle;Max_cycle;Signal;HPM_P1;HPM_P2
2024/01/28 00:02:03;;;;;;;22.48;12.10;;;2.40;90.70;;;;;;4991961;28;20097;-44
2024/01/28 00:04:32;;;;;;;19.67;9.82;;;2.50;90.80;;;;;;4990410;28;20137;-46
2024/01/28 00:06:59;;;;;;;22.90;10.93;;;2.50;90.80;;;;;;4992714;28;20049;-45
2024/01/28 00:09:26;;;;;;;17.92;9.45;;;2.50;90.90;;;;;;4995557;28;20376;-44
2024/01/28 00:11:52;;;;;;;27.10;10.52;;;2.50;90.80;;;;;;4985503;28;20062;-45
2024/01/28 00:14:20;;;;;;;26.65;11.10;;;2.50;90.70;;;;;;4975697;28;20038;-44
2024/01/28 00:16:46;;;;;;;20.98;10.25;;;2.50;90.60;;;;;;4975853;28;20030;-45
2024/01/28 00:19:13;;;;;;;20.92;9.68;;;2.50;90.40;;;;;;4975295;28;20027;-45
2024/01/28 00:21:38;;;;;;;22.38;11.07;;;2.40;90.30;;;;;;4974763;28;20023;-44
2024/01/28 00:24:06;;;;;;;16.55;9.98;;;2.40;90.40;;;;;;4958080;28;20062;-45
2024/01/28 00:26:37;;;;;;;23.55;10.18;;;2.40;90.40;;;;;;4956242;29;20091;-46
2024/01/28 00:29:05;;;;;;;25.75;11.43;;;2.40;90.40;;;;;;4960661;28;20023;-44
2024/01/28 00:31:32;;;;;;;17.60;9.45;;;2.40;90.50;;;;;;4975617;28;20460;-43
2024/01/28 00:34:02;;;;;;;16.27;10.52;;;2.40;90.40;;;;;;4975589;28;20027;-45
2024/01/28 00:36:29;;;;;;;21.27;9.98;;;2.30;90.30;;;;;;4975014;28;20556;-44
2024/01/28 00:38:56;;;;;;;16.05;9.57;;;2.30;90.40;;;;;;4958185;28;20023;-44
2024/01/28 00:41:23;;;;;;;21.52;10.68;;;2.30;90.40;;;;;;4975302;28;20106;-43
2024/01/28 00:43:52;;;;;;;21.10;10.57;;;2.30;90.50;;;;;;4975286;28;20042;-46
2024/01/28 00:46:20;;;;;;;22.70;10.40;;;2.20;90.30;;;;;;4975153;28;20027;-46
2024/01/28 00:48:47;;;;;;;22.88;10.38;;;2.30;90.60;;;;;;4975203;28;20023;-44
2024/01/28 00:51:14;;;;;;;24.27;9.25;;;2.20;90.50;;;;;;4973860;28;20030;-45
2024/01/28 00:53:42;;;;;;;16.60;9.90;;;2.20;90.50;;;;;;4975051;28;20515;-45
2024/01/28 00:56:09;;;;;;;17.75;8.77;;;2.20;90.40;;;;;;4975125;28;20380;-44
2024/01/28 00:58:35;;;;;;;12.80;8.32;;;2.20;90.50;;;;;;4975023;28;20419;-45
2024/01/28 01:01:03;;;;;;;15.27;9.00;;;2.20;90.50;;;;;;4974604;28;20058;-44
2024/01/28 01:03:31;;;;;;;20.30;10.13;;;2.20;90.50;;;;;;4974895;28;20035;-43
2024/01/28 01:06:00;;;;;;;26.20;10.83;;;2.10;90.60;;;;;;4974241;28;20049;-46
2024/01/28 01:08:32;;;;;;;18.85;9.50;;;2.10;90.60;;;;;;4974163;28;20035;-44
2024/01/28 01:11:05;;;;;;;22.85;9.77;;;2.10;90.70;;;;;;4973873;28;20026;-47
2024/01/28 01:13:32;;;;;;;17.95;9.73;;;2.10;90.70;;;;;;4974246;28;20026;-44
2024/01/28 01:15:59;;;;;;;23.95;9.65;;;2.10;90.60;;;;;;4974138;28;20031;-45
2024/01/28 01:18:26;;;;;;;16.88;9.43;;;2.00;90.50;;;;;;4973099;28;20441;-45
2024/01/28 01:20:52;;;;;;;24.83;10.10;;;2.10;90.60;;;;;;4973156;28;20035;-47
2024/01/28 01:23:18;;;;;;;18.67;9.43;;;2.00;90.50;;;;;;4974079;28;20027;-45
2024/01/28 01:25:46;;;;;;;18.92;9.20;;;2.00;90.40;;;;;;4956528;28;20392;-45
2024/01/28 01:28:14;;;;;;;21.15;9.05;;;2.00;90.40;;;;;;4974412;28;20075;-46
2024/01/28 01:30:41;;;;;;;13.18;9.23;;;2.00;90.40;;;;;;4974408;28;20125;-47
2024/01/28 01:33:06;;;;;;;20.33;10.45;;;2.00;90.30;;;;;;4974253;28;20518;-49
2024/01/28 01:35:32;;;;;;;17.58;9.68;;;1.90;90.30;;;;;;4973231;28;20034;-48
2024/01/28 01:37:59;;;;;;;16.95;10.52;;;1.90;90.40;;;;;;4974789;28;20030;-47
2024/01/28 01:40:25;;;;;;;30.48;14.35;;;1.90;90.50;;;;;;4956961;28;20045;-48
2024/01/28 01:42:54;;;;;;;20.65;9.43;;;2.00;90.60;;;;;;4974060;28;20038;-46
2024/01/28 01:45:22;;;;;;;22.10;11.20;;;2.00;90.50;;;;;;4974064;28;20459;-48
2024/01/28 01:47:52;;;;;;;20.05;9.40;;;2.00;90.60;;;;;;4973615;28;20039;-46
2024/01/28 01:50:19;;;;;;;20.58;10.68;;;2.00;90.60;;;;;;4973867;28;20105;-46
2024/01/28 01:52:47;;;;;;;19.27;10.38;;;2.00;90.60;;;;;;4974167;28;20038;-46
2024/01/28 01:55:15;;;;;;;22.48;10.32;;;2.00;90.70;;;;;;4973890;28;20030;-46
2024/01/28 01:57:44;;;;;;;17.63;10.85;;;2.00;90.50;;;;;;4973384;28;20026;-46
2024/01/28 02:00:14;;;;;;;20.83;9.50;;;2.00;90.60;;;;;;4973731;28;20336;-47
2024/01/28 02:02:44;;;;;;;23.65;10.95;;;2.00;90.40;;;;;;4973962;28;20475;-46
2024/01/28 02:05:11;;;;;;;26.20;10.73;;;2.00;90.30;;;;;;4972658;28;20045;-48
2024/01/28 02:07:38;;;;;;;22.00;10.55;;;2.00;90.20;;;;;;4973318;28;20125;-48
2024/01/28 02:10:06;;;;;;;19.48;10.05;;;2.00;90.30;;;;;;4972148;28;20053;-48
2024/01/28 02:12:33;;;;;;;20.70;10.30;;;1.90;90.00;;;;;;4983359;28;20482;-47
2024/01/28 02:15:09;;;;;;;17.23;10.60;;;1.90;90.10;;;;;;4989051;28;20037;-47
2024/01/28 02:17:37;;;;;;;17.60;10.27;;;1.90;90.10;;;;;;4989217;28;20078;-47
2024/01/28 02:20:05;;;;;;;19.23;9.77;;;1.90;90.20;;;;;;4984709;28;20038;-46
2024/01/28 02:22:35;;;;;;;19.25;9.60;;;1.90;90.20;;;;;;4992747;28;20026;-46
2024/01/28 02:25:03;;;;;;;18.40;10.00;;;1.80;90.20;;;;;;4992197;28;20619;-49
2024/01/28 02:27:29;;;;;;;15.68;9.43;;;1.80;90.30;;;;;;4991489;28;20034;-47
2024/01/28 02:29:56;;;;;;;20.88;9.93;;;1.80;90.30;;;;;;4990529;28;20035;-46
2024/01/28 02:32:21;;;;;;;19.27;10.68;;;1.80;90.30;;;;;;4991028;28;20632;-46
2024/01/28 02:34:48;;;;;;;17.70;10.43;;;1.80;90.50;;;;;;4990286;28;20033;-46
2024/01/28 02:37:15;;;;;;;16.33;10.38;;;1.80;90.50;;;;;;4990139;28;20097;-46
2024/01/28 02:39:44;;;;;;;18.27;10.25;;;1.80;90.60;;;;;;4989795;28;20089;-47
2024/01/28 02:42:11;;;;;;;18.85;9.48;;;1.90;90.50;;;;;;4991156;28;20297;-50
2024/01/28 02:44:38;;;;;;;19.20;10.45;;;1.90;90.40;;;;;;4991691;28;20105;-47
2024/01/28 02:47:05;;;;;;;20.50;9.82;;;1.90;90.30;;;;;;4991316;28;20101;-46
2024/01/28 02:49:33;;;;;;;20.50;10.52;;;1.90;90.20;;;;;;4990686;28;20097;-47
2024/01/28 02:52:03;;;;;;;22.30;11.02;;;1.80;90.10;;;;;;4992134;28;20507;-48
2024/01/28 02:54:29;;;;;;;28.20;12.80;;;1.80;90.10;;;;;;4991767;28;20022;-46
2024/01/28 02:56:55;;;;;;;22.55;11.98;;;1.80;90.10;;;;;;4991894;28;20027;-47
2024/01/28 02:59:21;;;;;;;16.95;10.15;;;1.80;90.20;;;;;;4990524;28;20030;-48
2024/01/28 03:01:48;;;;;;;17.30;10.15;;;1.80;90.20;;;;;;4991476;28;20045;-46
2024/01/28 03:04:17;;;;;;;16.60;9.70;;;1.80;90.20;;;;;;4991899;28;20085;-46
2024/01/28 03:06:45;;;;;;;22.92;10.02;;;1.70;90.20;;;;;;4977742;28;20027;-48
2024/01/28 03:09:11;;;;;;;24.60;11.68;;;1.80;90.40;;;;;;4975157;28;20034;-46
2024/01/28 03:11:41;;;;;;;25.88;12.98;;;1.80;90.40;;;;;;4985164;28;20078;-46
2024/01/28 03:14:08;;;;;;;;;;;1.80;90.70;;;;;;4973112;28;20046;-47
2024/01/28 03:16:34;;;;;;;20.38;10.43;;;1.80;90.60;;;;;;4972801;28;19910;-46
2024/01/28 03:19:01;;;;;;;24.58;11.35;;;1.80;90.60;;;;;;4970840;28;20478;-48
2024/01/28 03:21:26;;;;;;;16.50;10.88;;;1.80;90.70;;;;;;4972359;28;20435;-46
2024/01/28 03:23:53;;;;;;;23.92;10.57;;;1.80;90.50;;;;;;4972817;28;20066;-47
2024/01/28 03:26:19;;;;;;;25.10;11.07;;;1.80;90.50;;;;;;4952139;28;20039;-47
2024/01/28 03:28:45;;;;;;;21.98;12.45;;;1.80;90.50;;;;;;4959297;28;20030;-46
2024/01/28 03:31:16;;;;;;;19.15;11.15;;;1.80;90.40;;;;;;4972273;28;20415;-48
2024/01/28 03:33:43;;;;;;;21.85;13.63;;;1.70;90.30;;;;;;4972789;28;20031;-46
2024/01/28 03:36:10;;;;;;;20.58;11.88;;;1.70;90.40;;;;;;4972511;28;20073;-47
2024/01/28 03:38:39;;;;;;;23.27;12.48;;;1.70;90.50;;;;;;4972428;28;20034;-48
2024/01/28 03:41:06;;;;;;;22.83;12.52;;;1.70;90.40;;;;;;4973446;28;20094;-47
2024/01/28 03:43:32;;;;;;;19.88;12.82;;;1.70;90.30;;;;;;4976341;28;20058;-46
2024/01/28 03:46:01;;;;;;;25.75;12.85;;;1.70;90.40;;;;;;4976157;28;20038;-48
2024/01/28 03:48:28;;;;;;;23.73;12.07;;;1.70;90.40;;;;;;4975973;28;20039;-47
2024/01/28 03:50:55;;;;;;;27.10;12.90;;;1.70;90.40;;;;;;4975870;28;20027;-46
2024/01/28 03:53:21;;;;;;;22.27;11.70;;;1.70;90.30;;;;;;4976187;28;20420;-47
2024/01/28 03:55:47;;;;;;;25.17;13.10;;;1.70;90.00;;;;;;4975364;28;20435;-46
2024/01/28 03:58:14;;;;;;;23.90;12.23;;;1.70;90.10;;;;;;4975502;28;20034;-46
2024/01/28 04:00:41;;;;;;;27.15;12.85;;;1.60;90.20;;;;;;4958254;28;20527;-46
2024/01/28 04:03:08;;;;;;;24.02;12.68;;;1.60;90.20;;;;;;4975202;28;20038;-47
2024/01/28 04:05:35;;;;;;;24.40;12.82;;;1.60;90.20;;;;;;4975136;28;20384;-49
2024/01/28 04:08:02;;;;;;;26.48;13.05;;;1.60;90.30;;;;;;4975255;28;20026;-46
2024/01/28 04:10:28;;;;;;;24.40;12.35;;;1.60;90.30;;;;;;4975170;28;20019;-46
2024/01/28 04:12:56;;;;;;;26.15;12.85;;;1.60;90.20;;;;;;4974851;28;20034;-46
2024/01/28 04:15:22;;;;;;;26.27;13.52;;;1.60;90.30;;;;;;4974012;28;20027;-46
2024/01/28 04:17:48;;;;;;;25.63;14.18;;;1.60;90.10;;;;;;4974405;28;20038;-49
2024/01/28 04:20:14;;;;;;;25.20;14.15;;;1.60;90.20;;;;;;4975161;28;20041;-46
2024/01/28 04:22:40;;;;;;;22.20;13.98;;;1.60;90.20;;;;;;4975621;28;20105;-46
2024/01/28 04:25:07;;;;;;;24.40;13.10;;;1.60;90.40;;;;;;4975551;28;20118;-48
2024/01/28 04:27:35;;;;;;;18.42;12.40;;;1.60;90.40;;;;;;4975451;28;20027;-47
2024/01/28 04:30:00;;;;;;;21.52;13.98;;;1.60;90.50;;;;;;4975333;28;20356;-48
2024/01/28 04:32:27;;;;;;;20.17;13.13;;;1.60;90.50;;;;;;4974740;28;20026;-46
2024/01/28 04:34:54;;;;;;;21.05;12.07;;;1.70;90.40;;;;;;4975461;28;20035;-48
2024/01/28 04:37:22;;;;;;;27.63;14.63;;;1.60;90.40;;;;;;4974612;28;20601;-46
2024/01/28 04:39:50;;;;;;;22.92;12.77;;;1.60;90.40;;;;;;4974973;28;20241;-46
2024/01/28 04:42:21;;;;;;;25.60;12.98;;;1.60;90.40;;;;;;4975065;28;20554;-46
2024/01/28 04:44:49;;;;;;;28.90;14.85;;;1.60;90.30;;;;;;4974827;28;20034;-45
2024/01/28 04:47:15;;;;;;;19.58;12.50;;;1.60;90.30;;;;;;4974210;28;20081;-46
2024/01/28 04:49:45;;;;;;;22.58;13.05;;;1.60;90.40;;;;;;4974984;28;20451;-46
2024/01/28 04:52:13;;;;;;;23.98;11.77;;;1.60;90.40;;;;;;4975230;28;20053;-48
2024/01/28 04:54:41;;;;;;;28.45;12.30;;;1.60;90.40;;;;;;4942081;28;20531;-46
2024/01/28 04:57:11;;;;;;;19.25;11.85;;;1.60;90.30;;;;;;4975205;28;20037;-46
2024/01/28 04:59:38;;;;;;;23.92;12.85;;;1.60;90.20;;;;;;4974492;28;20042;-50
2024/01/28 05:02:05;;;;;;;26.90;12.23;;;1.60;90.30;;;;;;4973522;28;20041;-46
2024/01/28 05:04:35;;;;;;;23.90;12.30;;;1.50;90.30;;;;;;4974616;28;20027;-48
2024/01/28 05:07:02;;;;;;;;;;;1.50;90.30;;;;;;4975063;28;20135;-47
2024/01/28 05:09:29;;;;;;;20.88;12.13;;;1.50;90.50;;;;;;4974852;28;19988;-47
2024/01/28 05:11:55;;;;;;;21.20;14.40;;;1.50;90.50;;;;;;4974596;28;20126;-48
2024/01/28 05:14:23;;;;;;;24.83;13.07;;;1.50;90.40;;;;;;4974511;28;20031;-46
2024/01/28 05:16:53;;;;;;;26.65;14.05;;;1.50;90.60;;;;;;4974014;28;20324;-47
2024/01/28 05:19:19;;;;;;;;;;;1.50;90.60;;;;;;4957161;28;20126;-46
2024/01/28 05:21:45;;;;;;;23.25;14.93;;;1.50;90.70;;;;;;4954972;29;20025;-46
2024/01/28 05:24:12;;;;;;;22.90;12.70;;;1.50;90.60;;;;;;4973262;28;20026;-46
2024/01/28 05:26:37;;;;;;;24.67;16.00;;;1.50;90.60;;;;;;4974218;28;20037;-46
2024/01/28 05:29:05;;;;;;;22.58;13.25;;;1.50;90.60;;;;;;4974437;28;20023;-46
2024/01/28 05:31:37;;;;;;;20.98;13.07;;;1.50;90.60;;;;;;4973982;28;20034;-51
2024/01/28 05:34:04;;;;;;;21.38;11.73;;;1.60;90.60;;;;;;4974074;28;20031;-46
2024/01/28 05:36:31;;;;;;;23.20;12.43;;;1.60;90.50;;;;;;4974077;28;20117;-46
2024/01/28 05:38:58;;;;;;;26.02;12.65;;;1.60;90.40;;;;;;4973281;28;20372;-46
2024/01/28 05:41:26;;;;;;;29.85;12.55;;;1.60;90.40;;;;;;4974215;28;20027;-48
2024/01/28 05:43:53;;;;;;;25.17;12.88;;;1.60;90.30;;;;;;4973771;28;20031;-46
2024/01/28 05:46:22;;;;;;;22.13;12.10;;;1.60;90.20;;;;;;4973134;28;20131;-45
2024/01/28 05:48:48;;;;;;;22.73;14.15;;;1.60;90.10;;;;;;4974304;28;20034;-46
2024/01/28 05:51:16;;;;;;;20.27;12.18;;;1.60;90.10;;;;;;4973746;28;20039;-47
2024/01/28 05:53:43;;;;;;;14.20;10.70;;;1.60;90.00;;;;;;4974083;28;20456;-46
2024/01/28 05:56:11;;;;;;;20.05;11.90;;;1.50;89.90;;;;;;4956976;28;20058;-48
2024/01/28 05:58:38;;;;;;;18.52;12.48;;;1.50;90.00;;;;;;4973626;28;20050;-47
2024/01/28 06:01:08;;;;;;;26.42;14.48;;;1.50;89.90;;;;;;4972384;28;20030;-46
2024/01/28 06:03:34;;;;;;;19.08;13.07;;;1.50;90.00;;;;;;4972415;28;20336;-46
2024/01/28 06:06:05;;;;;;;20.58;12.77;;;1.40;89.80;;;;;;4972866;28;20031;-48
2024/01/28 06:08:32;;;;;;;23.17;13.13;;;1.40;90.10;;;;;;4971242;28;20018;-47
2024/01/28 06:10:57;;;;;;;19.75;11.90;;;1.50;90.20;;;;;;4973156;28;20023;-45
2024/01/28 06:13:28;;;;;;;20.80;13.10;;;1.50;90.10;;;;;;4972742;28;20050;-46
2024/01/28 06:15:53;;;;;;;23.77;11.02;;;1.50;90.10;;;;;;4973288;28;20058;-47
2024/01/28 06:18:20;;;;;;;18.58;11.02;;;1.50;90.00;;;;;;4971817;28;20042;-47
2024/01/28 06:20:47;;;;;;;26.13;12.18;;;1.60;90.00;;;;;;4972631;28;20478;-46
2024/01/28 06:23:12;;;;;;;22.42;11.30;;;1.60;89.80;;;;;;4972910;28;20491;-46
2024/01/28 06:25:41;;;;;;;20.85;13.40;;;1.60;89.80;;;;;;4973005;28;20085;-48
2024/01/28 06:28:08;;;;;;;21.58;15.48;;;1.60;89.80;;;;;;4973003;28;20436;-46
2024/01/28 06:30:38;;;;;;;22.50;13.02;;;1.60;89.80;;;;;;4972021;28;20126;-46
2024/01/28 06:33:05;;;;;;;20.15;12.52;;;1.60;89.80;;;;;;4953634;28;20023;-46
2024/01/28 06:35:32;;;;;;;23.08;12.13;;;1.60;89.60;;;;;;4972546;28;20031;-47
2024/01/28 06:37:59;;;;;;;24.73;11.45;;;1.60;89.60;;;;;;4972849;28;20015;-47
2024/01/28 06:40:25;;;;;;;19.63;11.65;;;1.60;89.50;;;;;;4972912;28;20039;-47
2024/01/28 06:42:52;;;;;;;18.42;13.68;;;1.60;89.50;;;;;;4972859;28;20038;-46
2024/01/28 06:45:19;;;;;;;24.88;11.43;;;1.60;89.50;;;;;;4972824;28;20104;-46
2024/01/28 06:47:46;;;;;;;20.80;11.75;;;1.60;89.40;;;;;;4972808;28;20023;-47
2024/01/28 06:50:15;;;;;;;19.23;11.57;;;1.50;89.60;;;;;;4971482;28;20030;-48
2024/01/28 06:52:42;;;;;;;26.40;11.73;;;1.50;89.70;;;;;;4972635;28;20026;-46
2024/01/28 06:55:10;;;;;;;24.67;11.43;;;1.50;89.70;;;;;;4972984;28;20037;-46
2024/01/28 06:57:40;;;;;;;19.83;10.88;;;1.50;89.60;;;;;;4973145;28;20094;-45
2024/01/28 07:00:10;;;;;;;24.90;11.60;;;1.60;89.50;;;;;;4971908;28;20439;-47
2024/01/28 07:02:37;;;;;;;18.90;11.25;;;1.60;89.40;;;;;;4972121;28;20100;-46
2024/01/28 07:05:07;;;;;;;21.48;10.77;;;1.60;89.30;;;;;;4972001;28;20427;-46
2024/01/28 07:07:36;;;;;;;21.38;10.68;;;1.60;89.20;;;;;;4971414;28;20018;-48
2024/01/28 07:10:05;;;;;;;25.20;10.45;;;1.60;89.10;;;;;;4971521;28;20613;-49
2024/01/28 07:12:34;;;;;;;23.63;10.25;;;1.60;89.00;;;;;;4984277;28;20045;-48
2024/01/28 07:15:00;;;;;;;21.73;9.98;;;1.60;89.00;;;;;;4988852;28;20038;-48
2024/01/28 07:17:27;;;;;;;19.20;11.23;;;1.60;88.90;;;;;;4991291;28;20426;-46
2024/01/28 07:19:54;;;;;;;14.77;8.52;;;1.60;88.80;;;;;;4976954;28;20137;-46
2024/01/28 07:22:22;;;;;;;17.85;9.85;;;1.60;88.90;;;;;;4994345;28;20034;-48
2024/01/28 07:24:53;;;;;;;20.75;10.95;;;1.70;88.90;;;;;;4992751;28;20037;-47
2024/01/28 07:27:19;;;;;;;20.95;10.18;;;1.60;88.80;;;;;;4994381;28;20026;-46
2024/01/28 07:29:45;;;;;;;31.45;12.30;;;1.60;88.70;;;;;;4994201;28;20077;-46
2024/01/28 07:32:13;;;;;;;14.15;8.95;;;1.70;88.70;;;;;;4995454;28;20466;-46
2024/01/28 07:34:40;;;;;;;20.33;9.00;;;1.70;88.60;;;;;;4995206;28;20022;-46
2024/01/28 07:37:08;;;;;;;16.20;10.05;;;1.70;88.50;;;;;;4995349;28;20390;-48
2024/01/28 07:39:35;;;;;;;16.25;9.68;;;1.70;88.40;;;;;;4995834;28;20030;-46
2024/01/28 07:42:02;;;;;;;19.80;9.23;;;1.70;88.30;;;;;;4995614;28;20034;-47
2024/01/28 07:44:29;;;;;;;17.15;9.43;;;1.70;88.30;;;;;;4995416;28;20098;-49
2024/01/28 07:46:57;;;;;;;19.83;10.25;;;1.80;88.30;;;;;;4978287;28;20030;-46
2024/01/28 07:49:24;;;;;;;23.65;11.07;;;1.70;88.30;;;;;;4995296;28;20038;-45
2024/01/28 07:51:50;;;;;;;17.88;10.55;;;1.80;88.30;;;;;;4976981;28;20025;-46
2024/01/28 07:54:18;;;;;;;19.63;9.80;;;1.70;87.90;;;;;;4994595;28;20046;-45
2024/01/28 07:56:45;;;;;;;19.73;10.88;;;1.70;88.00;;;;;;5014551;28;20029;-47
2024/01/28 07:59:14;;;;;;;23.95;13.73;;;1.70;87.90;;;;;;5004276;28;20371;-48
2024/01/28 08:01:40;;;;;;;21.27;9.63;;;1.80;88.00;;;;;;4991717;28;20112;-46
2024/01/28 08:04:06;;;;;;;16.05;9.23;;;1.70;88.00;;;;;;5002170;28;20061;-46
2024/01/28 08:06:33;;;;;;;17.75;10.05;;;1.80;88.20;;;;;;4994541;28;20058;-45
2024/01/28 08:09:00;;;;;;;13.32;9.13;;;1.90;88.10;;;;;;4995023;28;20085;-46
2024/01/28 08:11:27;;;;;;;21.38;10.40;;;1.90;87.80;;;;;;4988841;28;20038;-48
2024/01/28 08:13:56;;;;;;;21.55;9.63;;;1.90;87.70;;;;;;4957806;28;20090;-47
2024/01/28 08:16:25;;;;;;;18.55;9.68;;;1.90;87.40;;;;;;4976041;28;20035;-46
2024/01/28 08:18:51;;;;;;;13.85;8.15;;;1.90;87.60;;;;;;4975302;28;20042;-45
2024/01/28 08:21:20;;;;;;;22.67;9.73;;;1.90;87.60;;;;;;4975699;28;20023;-45
2024/01/28 08:23:46;;;;;;;14.05;9.30;;;2.00;87.60;;;;;;4975341;28;20027;-46
2024/01/28 08:26:15;;;;;;;15.20;8.85;;;2.00;87.60;;;;;;4974545;28;20049;-47
2024/01/28 08:28:42;;;;;;;18.17;9.07;;;2.00;87.60;;;;;;4980492;28;20042;-45
2024/01/28 08:31:07;;;;;;;16.13;9.45;;;2.00;87.40;;;;;;4974835;28;20170;-45
2024/01/28 08:33:38;;;;;;;16.27;8.70;;;2.10;87.60;;;;;;4958013;28;20030;-44
2024/01/28 08:36:06;;;;;;;14.18;10.40;;;2.20;87.40;;;;;;4973826;28;20027;-44
2024/01/28 08:38:33;;;;;;;12.15;7.65;;;2.30;87.30;;;;;;4978375;28;20035;-43
2024/01/28 08:41:00;;;;;;;18.55;9.52;;;2.40;87.00;;;;;;4974790;28;20042;-43
2024/01/28 08:43:27;;;;;;;18.00;9.57;;;2.40;86.90;;;;;;4974845;28;20038;-44
2024/01/28 08:45:55;;;;;;;17.25;9.05;;;2.50;86.60;;;;;;4974388;28;20030;-45
2024/01/28 08:48:22;;;;;;;12.82;7.93;;;2.60;86.40;;;;;;4974902;28;20420;-44
2024/01/28 08:50:51;;;;;;;12.93;7.95;;;2.70;86.30;;;;;;4980944;28;20034;-44
2024/01/28 08:53:17;;;;;;;15.90;8.77;;;2.90;86.20;;;;;;4976122;28;20037;-44
2024/01/28 08:55:44;;;;;;;18.00;8.40;;;2.90;85.60;;;;;;4976153;28;20018;-44
2024/01/28 08:58:14;;;;;;;20.33;8.40;;;3.00;85.50;;;;;;4976071;28;20041;-43
2024/01/28 09:00:41;;;;;;;18.75;8.88;;;3.00;85.50;;;;;;4977283;28;20034;-44
2024/01/28 09:03:10;;;;;;;13.98;8.35;;;3.00;85.40;;;;;;4975412;28;20422;-43
2024/01/28 09:05:39;;;;;;;16.73;8.82;;;3.10;85.30;;;;;;4971412;28;20351;-46
2024/01/28 09:08:06;;;;;;;16.23;8.85;;;3.20;85.10;;;;;;4980304;28;20167;-43
2024/01/28 09:10:33;;;;;;;12.63;8.30;;;3.20;85.00;;;;;;4975945;28;20106;-44
2024/01/28 09:13:00;;;;;;;18.17;8.60;;;3.20;85.20;;;;;;4970495;28;20129;-43
2024/01/28 09:15:27;;;;;;;17.00;8.18;;;3.30;85.10;;;;;;4972727;28;20089;-43
2024/01/28 09:17:53;;;;;;;17.77;8.65;;;3.30;84.90;;;;;;4958467;28;20460;-44
2024/01/28 09:20:20;;;;;;;20.05;8.02;;;3.40;84.90;;;;;;4974895;28;20030;-44
2024/01/28 09:22:45;;;;;;;14.02;8.00;;;3.40;85.00;;;;;;4973221;28;20031;-45
2024/01/28 09:25:12;;;;;;;14.23;8.60;;;3.50;84.60;;;;;;4970667;28;20043;-44
2024/01/28 09:27:39;;;;;;;12.95;8.60;;;3.60;85.00;;;;;;4974078;28;20023;-44
2024/01/28 09:30:06;;;;;;;21.50;8.98;;;3.90;84.70;;;;;;4973954;28;20092;-43
2024/01/28 09:32:32;;;;;;;14.25;7.82;;;4.00;83.50;;;;;;4974044;28;20023;-44
2024/01/28 09:34:59;;;;;;;14.10;7.78;;;4.20;82.90;;;;;;4973405;28;20070;-44
2024/01/28 09:37:26;;;;;;;12.25;6.63;;;4.30;82.40;;;;;;4974028;28;20058;-44
2024/01/28 09:39:53;;;;;;;15.25;9.55;;;4.40;81.40;;;;;;4972500;28;20031;-46
2024/01/28 09:42:52;;;;;;;16.00;7.40;;;4.40;81.50;;;;;;4973841;28;20054;-45
2024/01/28 09:45:20;;;;;;;14.07;7.10;;;4.50;81.10;;;;;;4966637;28;20027;-45
2024/01/28 09:47:50;;;;;;;11.77;6.90;;;4.60;80.60;;;;;;4973934;28;20031;-47
2024/01/28 09:50:18;;;;;;;17.27;6.85;;;4.60;79.70;;;;;;4956171;28;20340;-46
2024/01/28 09:52:45;;;;;;;15.45;5.95;;;4.60;79.50;;;;;;4973442;28;20027;-45
2024/01/28 09:55:13;;;;;;;14.00;6.50;;;4.70;79.40;;;;;;4972794;28;20529;-48
2024/01/28 09:57:45;;;;;;;13.45;5.75;;;4.80;79.00;;;;;;4972310;28;20519;-45
2024/01/28 10:00:16;;;;;;;13.50;5.85;;;4.80;78.60;;;;;;4972121;28;20274;-50
2024/01/28 10:02:43;;;;;;;15.10;8.95;;;4.90;78.20;;;;;;4973310;28;20030;-47
2024/01/28 10:05:10;;;;;;;13.05;6.32;;;5.00;77.90;;;;;;4956182;28;20031;-45
2024/01/28 10:07:48;;;;;;;11.98;4.95;;;5.00;76.90;;;;;;4956421;28;20436;-50
2024/01/28 10:10:18;;;;;;;14.35;5.28;;;5.10;76.20;;;;;;4956193;28;20082;-46
2024/01/28 10:12:49;;;;;;;9.27;5.20;;;5.20;76.10;;;;;;4986721;28;20053;-46
2024/01/28 10:15:18;;;;;;;14.82;5.57;;;5.30;76.00;;;;;;4992229;28;20042;-46
2024/01/28 10:17:48;;;;;;;15.30;6.50;;;5.40;75.50;;;;;;4987822;28;20027;-48
2024/01/28 10:20:20;;;;;;;10.85;5.47;;;5.40;75.30;;;;;;4977723;28;20455;-46
2024/01/28 10:22:46;;;;;;;11.48;6.63;;;5.50;74.30;;;;;;5011772;28;20041;-47
2024/01/28 10:25:15;;;;;;;10.85;4.88;;;5.60;74.10;;;;;;4994172;28;20038;-48
2024/01/28 10:27:43;;;;;;;11.73;4.80;;;5.60;74.40;;;;;;4993003;28;20042;-47
2024/01/28 10:30:11;;;;;;;11.35;5.60;;;5.60;74.30;;;;;;4991841;28;20110;-45
2024/01/28 10:32:38;;;;;;;10.02;5.25;;;5.60;74.00;;;;;;4991407;28;20059;-47
2024/01/28 10:35:12;;;;;;;12.80;5.32;;;5.70;74.20;;;;;;4992141;28;20668;-47
2024/01/28 10:37:40;;;;;;;15.02;5.78;;;5.70;73.70;;;;;;4977044;28;20038;-48
2024/01/28 10:40:08;;;;;;;11.20;5.35;;;5.90;73.90;;;;;;4991315;28;20026;-48
2024/01/28 10:42:42;;;;;;;11.52;5.00;;;5.90;73.00;;;;;;4991953;28;20071;-49
2024/01/28 10:45:16;;;;;;;10.23;4.80;;;6.00;73.10;;;;;;4991684;28;20030;-47
2024/01/28 10:47:50;;;;;;;9.77;5.22;;;5.90;72.00;;;;;;4991992;28;20045;-46
2024/01/28 10:50:24;;;;;;;13.27;6.05;;;6.00;72.10;;;;;;4991940;28;20023;-46
2024/01/28 10:52:52;;;;;;;11.90;4.38;;;6.20;71.60;;;;;;4991487;28;20026;-48
2024/01/28 10:55:20;;;;;;;8.68;4.38;;;6.30;71.30;;;;;;4991604;28;20031;-47
2024/01/28 10:57:48;;;;;;;8.88;5.45;;;6.40;71.50;;;;;;4991280;28;20046;-48
2024/01/28 11:00:20;;;;;;;10.43;4.90;;;6.40;71.00;;;;;;4990419;28;20345;-47
2024/01/28 11:02:49;;;;;;;8.15;4.15;;;6.40;70.60;;;;;;4988954;28;20023;-47
2024/01/28 11:05:16;;;;;;;10.95;4.22;;;6.10;70.70;;;;;;4990746;28;20106;-47
2024/01/28 11:07:43;;;;;;;13.63;4.97;;;6.10;70.80;;;;;;4988580;28;20030;-49
2024/01/28 11:10:10;;;;;;;10.63;5.00;;;6.00;71.00;;;;;;4991050;28;20049;-47
2024/01/28 11:12:39;;;;;;;10.07;5.00;;;6.10;71.10;;;;;;4975882;28;20046;-47
2024/01/28 11:15:11;;;;;;;9.23;4.68;;;6.00;71.40;;;;;;4968562;28;20033;-48
2024/01/28 11:17:42;;;;;;;9.80;3.88;;;6.00;71.40;;;;;;4971599;28;20456;-47
2024/01/28 11:20:10;;;;;;;10.30;4.00;;;6.00;71.20;;;;;;4971679;28;20463;-49
2024/01/28 11:22:48;;;;;;;8.23;4.07;;;6.00;71.60;;;;;;4972152;28;20583;-47
2024/01/28 11:25:27;;;;;;;8.38;4.20;;;6.00;71.40;;;;;;4971752;28;20094;-47
2024/01/28 11:28:05;;;;;;;5.32;3.40;;;6.00;71.00;;;;;;4951484;28;20027;-50
2024/01/28 11:30:34;;;;;;;10.35;4.53;;;6.10;71.30;;;;;;4971269;28;20030;-47
2024/01/28 11:33:16;;;;;;;8.90;3.78;;;6.10;71.10;;;;;;4971842;28;20031;-47
2024/01/28 11:35:47;;;;;;;10.38;3.42;;;6.20;70.30;;;;;;4971839;28;20094;-47
2024/01/28 11:38:27;;;;;;;11.73;4.30;;;6.20;70.20;;;;;;4971719;28;20023;-47
2024/01/28 11:40:58;;;;;;;10.10;3.47;;;6.30;70.00;;;;;;4971391;28;20128;-51
2024/01/28 11:43:25;;;;;;;10.88;4.40;;;6.30;69.80;;;;;;4971446;28;20101;-47
2024/01/28 11:45:52;;;;;;;8.80;3.28;;;6.30;71.20;;;;;;4971740;28;20058;-50
2024/01/28 11:48:21;;;;;;;15.77;5.25;;;6.40;70.50;;;;;;4971370;28;20692;-49
2024/01/28 11:50:48;;;;;;;7.93;4.95;;;6.40;71.00;;;;;;4971651;28;20080;-48
2024/01/28 11:53:15;;;;;;;11.52;4.20;;;6.50;70.90;;;;;;4971795;28;20022;-48
2024/01/28 11:55:40;;;;;;;10.25;3.70;;;6.50;71.00;;;;;;4971715;28;20030;-50
2024/01/28 11:58:08;;;;;;;8.57;3.85;;;6.50;70.60;;;;;;4972054;28;20030;-49
2024/01/28 12:00:40;;;;;;;9.90;3.78;;;6.50;70.80;;;;;;4971843;28;20154;-48
2024/01/28 12:03:08;;;;;;;6.85;3.97;;;6.60;70.80;;;;;;4980068;28;20127;-47
2024/01/28 12:05:34;;;;;;;9.10;3.63;;;6.70;70.00;;;;;;4981035;28;20066;-54
2024/01/28 12:08:02;;;;;;;7.43;3.58;;;6.70;70.10;;;;;;4994865;28;20033;-49
2024/01/28 12:10:30;;;;;;;8.25;3.67;;;6.70;70.50;;;;;;4981226;28;20157;-48
2024/01/28 12:12:58;;;;;;;10.23;5.32;;;6.80;70.50;;;;;;4990961;28;20695;-49
2024/01/28 12:15:25;;;;;;;8.68;4.60;;;6.80;69.90;;;;;;4995044;28;20038;-47
2024/01/28 12:17:51;;;;;;;7.70;4.07;;;6.80;70.40;;;;;;4991234;28;20096;-49
2024/01/28 12:20:24;;;;;;;7.70;3.70;;;6.80;70.30;;;;;;4975557;28;20458;-47
2024/01/28 12:22:54;;;;;;;10.13;4.10;;;6.90;70.30;;;;;;4963231;28;20045;-47
2024/01/28 12:25:22;;;;;;;9.32;4.35;;;6.90;69.90;;;;;;4977676;28;20452;-48
2024/01/28 12:27:50;;;;;;;9.63;4.00;;;6.90;70.20;;;;;;4993858;28;20088;-48
2024/01/28 12:30:18;;;;;;;8.57;4.20;;;6.90;70.50;;;;;;4994320;28;20053;-50
2024/01/28 12:32:45;;;;;;;9.57;3.55;;;7.00;70.30;;;;;;4994591;28;20057;-48
2024/01/28 12:35:13;;;;;;;12.25;3.78;;;7.00;70.00;;;;;;4994456;28;20041;-49
2024/01/28 12:37:40;;;;;;;9.50;4.38;;;7.00;70.00;;;;;;4998287;28;20099;-47
2024/01/28 12:40:08;;;;;;;6.10;3.53;;;6.90;70.10;;;;;;4993320;28;20502;-48
2024/01/28 12:42:40;;;;;;;7.35;3.40;;;6.90;69.90;;;;;;4993997;28;20030;-50
2024/01/28 12:45:11;;;;;;;8.55;4.00;;;6.90;69.70;;;;;;4992714;28;20463;-48
2024/01/28 12:47:40;;;;;;;10.32;3.53;;;6.90;69.70;;;;;;4997334;28;20029;-51